createdAt,value
2018-09-14T00:00:28.361Z,9.15
2018-09-14T00:01:01.884Z,9.53
2018-09-14T00:01:35.388Z,9.55
2018-09-14T00:02:08.889Z,10.10
2018-09-14T00:02:42.436Z,9.80
2018-09-14T00:03:15.960Z,9.80
2018-09-14T00:03:49.514Z,10.32
2018-09-14T00:04:23.090Z,10.10
2018-09-14T00:04:56.653Z,9.25
2018-09-14T00:05:30.425Z,9.45
2018-09-14T00:06:03.982Z,9.20
2018-09-14T00:06:37.508Z,9.60
2018-09-14T00:07:11.032Z,9.38
2018-09-14T00:07:44.530Z,9.58
2018-09-14T00:08:18.064Z,9.38
2018-09-14T00:08:51.605Z,9.88
2018-09-14T00:09:25.111Z,9.60
2018-09-14T00:09:58.715Z,9.28
2018-09-14T00:10:32.286Z,9.33
2018-09-14T00:11:05.990Z,9.40
2018-09-14T00:11:39.556Z,9.50
2018-09-14T00:12:13.100Z,9.73
2018-09-14T00:12:46.625Z,9.80
2018-09-14T00:13:20.198Z,9.68
2018-09-14T00:13:54.090Z,9.90
2018-09-14T00:14:27.671Z,9.65
2018-09-14T00:15:01.232Z,9.70
2018-09-14T00:15:34.736Z,9.40
2018-09-14T00:16:08.262Z,10.08
2018-09-14T00:16:41.866Z,9.85
2018-09-14T00:17:15.478Z,9.38
2018-09-14T00:17:48.986Z,9.48
2018-09-14T00:18:22.679Z,9.38
2018-09-14T00:18:56.182Z,9.55
2018-09-14T00:19:29.718Z,10.13
2018-09-14T00:20:03.345Z,9.90
2018-09-14T00:20:36.894Z,9.60
2018-09-14T00:21:10.478Z,9.73
2018-09-14T00:21:44.004Z,9.85
2018-09-14T00:22:17.553Z,9.70
2018-09-14T00:22:51.253Z,9.83
2018-09-14T00:23:24.788Z,9.95
2018-09-14T00:23:58.319Z,10.08
2018-09-14T00:24:31.894Z,9.83
2018-09-14T00:25:05.468Z,9.78
2018-09-14T00:25:39.010Z,10.13
2018-09-14T00:26:12.556Z,10.28
2018-09-14T00:26:46.054Z,10.05
2018-09-14T00:27:19.557Z,10.00
2018-09-14T00:27:53.098Z,9.93
2018-09-14T00:28:26.632Z,10.40
2018-09-14T00:29:00.159Z,10.18
2018-09-14T00:29:33.750Z,9.70
2018-09-14T00:30:07.322Z,10.50
2018-09-14T00:30:40.882Z,10.10
2018-09-14T00:31:14.386Z,10.53
2018-09-14T00:31:47.914Z,10.43
2018-09-14T00:32:21.498Z,10.18
2018-09-14T00:32:55.063Z,9.65
2018-09-14T00:33:28.581Z,9.93
2018-09-14T00:34:02.146Z,9.90
2018-09-14T00:34:35.710Z,10.38
2018-09-14T00:35:09.226Z,10.63
2018-09-14T00:35:42.957Z,10.60
2018-09-14T00:36:16.492Z,10.50
2018-09-14T00:36:50.028Z,10.13
2018-09-14T00:37:23.582Z,10.15
2018-09-14T00:37:57.101Z,10.10
2018-09-14T00:38:30.608Z,10.72
2018-09-14T00:39:07.349Z,10.30
2018-09-14T00:39:40.894Z,10.53
2018-09-14T00:40:14.426Z,10.30
2018-09-14T00:40:47.960Z,10.85
2018-09-14T00:41:21.508Z,10.25
2018-09-14T00:41:55.028Z,10.35
2018-09-14T00:42:28.616Z,10.63
2018-09-14T00:43:02.182Z,10.08
2018-09-14T00:43:35.674Z,10.30
2018-09-14T00:44:09.226Z,10.18
2018-09-14T00:44:42.745Z,10.43
2018-09-14T00:45:16.301Z,10.68
2018-09-14T00:45:50.412Z,11.00
2018-09-14T00:46:23.948Z,10.40
2018-09-14T00:46:57.455Z,10.35
2018-09-14T00:47:30.972Z,10.82
2018-09-14T00:48:04.653Z,10.25
2018-09-14T00:48:38.205Z,10.30
2018-09-14T00:49:11.709Z,10.63
2018-09-14T00:49:45.213Z,10.80
2018-09-14T00:50:18.768Z,10.90
2018-09-14T00:50:52.340Z,9.90
2018-09-14T00:51:25.873Z,10.55
2018-09-14T00:51:59.379Z,10.70
2018-09-14T00:52:32.907Z,10.70
2018-09-14T00:53:06.463Z,10.70
2018-09-14T00:53:39.982Z,11.03
2018-09-14T00:54:13.501Z,10.43
2018-09-14T00:54:47.028Z,11.08
2018-09-14T00:55:20.582Z,11.48
2018-09-14T00:55:54.156Z,11.10
2018-09-14T00:56:27.677Z,11.18
2018-09-14T00:57:01.217Z,11.55
2018-09-14T00:57:34.768Z,11.10
2018-09-14T00:58:08.289Z,10.90
2018-09-14T00:58:41.808Z,11.48
2018-09-14T00:59:15.365Z,10.90
2018-09-14T00:59:48.925Z,11.20
2018-09-14T01:00:22.426Z,11.70
2018-09-14T01:00:56.085Z,12.15
2018-09-14T01:01:29.661Z,11.80
2018-09-14T01:02:03.379Z,11.55
2018-09-14T01:02:36.919Z,11.33
2018-09-14T01:03:10.526Z,11.25
2018-09-14T01:03:44.074Z,11.48
2018-09-14T01:04:17.629Z,11.80
2018-09-14T01:04:51.151Z,11.83
2018-09-14T01:05:24.686Z,11.60
2018-09-14T01:05:58.221Z,11.40
2018-09-14T01:06:31.763Z,11.60
2018-09-14T01:07:05.346Z,11.08
2018-09-14T01:07:38.877Z,11.68
2018-09-14T01:08:12.409Z,11.88
2018-09-14T01:08:45.907Z,10.93
2018-09-14T01:09:25.039Z,11.40
2018-09-14T01:09:58.581Z,11.10
2018-09-14T01:10:32.187Z,11.75
2018-09-14T01:11:05.864Z,11.20
2018-09-14T01:11:39.655Z,11.73
2018-09-14T01:12:13.191Z,11.03
2018-09-14T01:12:46.731Z,10.98
2018-09-14T01:13:20.251Z,11.18
2018-09-14T01:13:53.765Z,10.95
2018-09-14T01:14:27.981Z,10.93
2018-09-14T01:15:01.527Z,11.10
2018-09-14T01:15:35.149Z,10.68
2018-09-14T01:16:08.659Z,10.38
2018-09-14T01:16:42.493Z,11.15
2018-09-14T01:17:16.144Z,10.38
2018-09-14T01:17:49.583Z,10.30
2018-09-14T01:18:23.131Z,10.60
2018-09-14T01:18:56.684Z,10.32
2018-09-14T01:19:30.190Z,10.58
2018-09-14T01:20:04.123Z,10.30
2018-09-14T01:20:37.610Z,10.78
2018-09-14T01:21:11.119Z,10.23
2018-09-14T01:21:44.650Z,10.75
2018-09-14T01:22:18.168Z,10.10
2018-09-14T01:22:51.677Z,10.68
2018-09-14T01:23:25.237Z,10.63
2018-09-14T01:23:58.779Z,10.75
2018-09-14T01:24:32.316Z,10.85
2018-09-14T01:25:05.843Z,10.90
2018-09-14T01:25:39.377Z,10.38
2018-09-14T01:26:12.913Z,10.32
2018-09-14T01:26:46.557Z,10.80
2018-09-14T01:27:20.093Z,10.35
2018-09-14T01:27:53.646Z,10.65
2018-09-14T01:28:27.187Z,10.35
2018-09-14T01:29:00.704Z,10.78
2018-09-14T01:29:34.253Z,10.65
2018-09-14T01:30:07.833Z,10.55
2018-09-14T01:30:41.361Z,10.70
2018-09-14T01:31:14.898Z,10.28
2018-09-14T01:31:48.496Z,11.03
2018-09-14T01:32:21.973Z,10.80
2018-09-14T01:32:55.619Z,10.50
2018-09-14T01:33:29.142Z,10.63
2018-09-14T01:34:02.664Z,10.85
2018-09-14T01:34:36.166Z,10.63
2018-09-14T01:35:15.505Z,10.60
2018-09-14T01:35:54.699Z,10.70
2018-09-14T01:36:28.210Z,10.90
2018-09-14T01:37:01.724Z,10.25
2018-09-14T01:37:35.288Z,10.88
2018-09-14T01:38:08.839Z,10.23
2018-09-14T01:38:42.411Z,10.23
2018-09-14T01:39:15.917Z,10.82
2018-09-14T01:39:49.435Z,10.45
2018-09-14T01:40:23.017Z,9.93
2018-09-14T01:40:56.533Z,10.78
2018-09-14T01:41:30.029Z,10.65
2018-09-14T01:42:03.549Z,10.55
2018-09-14T01:42:37.097Z,10.55
2018-09-14T01:43:10.599Z,10.35
2018-09-14T01:43:44.126Z,10.05
2018-09-14T01:44:17.725Z,11.08
2018-09-14T01:44:51.258Z,10.30
2018-09-14T01:45:24.801Z,10.45
2018-09-14T01:45:58.331Z,10.90
2018-09-14T01:46:31.851Z,10.72
2018-09-14T01:47:05.584Z,10.68
2018-09-14T01:47:39.105Z,10.28
2018-09-14T01:48:12.707Z,10.50
2018-09-14T01:48:46.241Z,10.85
2018-09-14T01:49:19.789Z,10.82
2018-09-14T01:49:53.285Z,10.53
2018-09-14T01:50:26.801Z,10.48
2018-09-14T01:51:00.364Z,10.08
2018-09-14T01:51:33.949Z,10.43
2018-09-14T01:52:07.518Z,10.30
2018-09-14T01:52:41.072Z,10.20
2018-09-14T01:53:14.901Z,10.23
2018-09-14T01:53:48.426Z,10.63
2018-09-14T01:54:21.954Z,10.43
2018-09-14T01:54:55.495Z,10.48
2018-09-14T01:55:29.023Z,10.68
2018-09-14T01:56:02.531Z,10.58
2018-09-14T01:56:36.115Z,10.13
2018-09-14T01:57:09.623Z,10.18
2018-09-14T01:57:43.130Z,10.40
2018-09-14T01:58:16.646Z,9.88
2018-09-14T01:58:50.188Z,9.70
2018-09-14T01:59:23.743Z,9.78
2018-09-14T01:59:57.293Z,9.95
2018-09-14T02:00:30.839Z,10.10
2018-09-14T02:01:04.375Z,9.65
2018-09-14T02:01:37.893Z,9.80
2018-09-14T02:02:11.439Z,10.03
2018-09-14T02:02:44.973Z,9.50
2018-09-14T02:03:18.763Z,9.65
2018-09-14T02:03:52.326Z,9.38
2018-09-14T02:04:25.840Z,9.73
2018-09-14T02:04:59.405Z,9.73
2018-09-14T02:05:32.963Z,9.43
2018-09-14T02:06:06.495Z,9.63
2018-09-14T02:06:40.146Z,9.35
2018-09-14T02:07:13.656Z,9.23
2018-09-14T02:07:47.205Z,9.13
2018-09-14T02:08:20.777Z,8.80
2018-09-14T02:08:54.745Z,8.90
2018-09-14T02:09:28.264Z,9.20
2018-09-14T02:10:01.789Z,9.08
2018-09-14T02:10:35.328Z,9.15
2018-09-14T02:11:08.855Z,8.63
2018-09-14T02:11:42.403Z,9.08
2018-09-14T02:12:15.929Z,9.28
2018-09-14T02:12:50.250Z,9.00
2018-09-14T02:13:23.737Z,8.85
2018-09-14T02:13:57.240Z,8.45
2018-09-14T02:14:30.733Z,8.53
2018-09-14T02:15:04.555Z,8.50
2018-09-14T02:15:38.123Z,8.68
2018-09-14T02:16:11.677Z,8.50
2018-09-14T02:16:45.181Z,8.50
2018-09-14T02:17:18.701Z,8.48
2018-09-14T02:17:52.193Z,8.20
2018-09-14T02:18:25.739Z,9.40
2018-09-14T02:18:59.295Z,9.08
2018-09-14T02:19:32.815Z,8.95
2018-09-14T02:20:06.359Z,8.40
2018-09-14T02:20:39.900Z,8.45
2018-09-14T02:21:13.436Z,8.20
2018-09-14T02:21:47.033Z,8.28
2018-09-14T02:22:20.568Z,8.23
2018-09-14T02:22:54.047Z,8.20
2018-09-14T02:23:27.589Z,8.30
2018-09-14T02:24:01.105Z,8.25
2018-09-14T02:24:34.789Z,8.05
2018-09-14T02:25:08.616Z,8.20
2018-09-14T02:25:42.207Z,8.53
2018-09-14T02:26:15.724Z,8.30
2018-09-14T02:26:49.251Z,8.23
2018-09-14T02:27:22.797Z,8.68
2018-09-14T02:27:56.384Z,7.72
2018-09-14T02:28:29.895Z,8.50
2018-09-14T02:29:03.447Z,8.30
2018-09-14T02:29:37.067Z,8.63
2018-09-14T02:30:10.716Z,8.38
2018-09-14T02:30:44.236Z,8.43
2018-09-14T02:31:17.733Z,8.85
2018-09-14T02:31:51.269Z,8.48
2018-09-14T02:32:24.800Z,8.50
2018-09-14T02:32:58.323Z,8.60
2018-09-14T02:33:31.842Z,8.98
2018-09-14T02:34:05.398Z,8.70
2018-09-14T02:34:38.927Z,8.68
2018-09-14T02:35:12.490Z,9.08
2018-09-14T02:35:46.028Z,9.00
2018-09-14T02:36:19.535Z,8.73
2018-09-14T02:36:53.084Z,9.28
2018-09-14T02:37:26.680Z,9.63
2018-09-14T02:38:00.219Z,9.03
2018-09-14T02:38:33.728Z,8.83
2018-09-14T02:39:07.944Z,9.28
2018-09-14T02:39:41.514Z,9.13
2018-09-14T02:40:15.040Z,8.80
2018-09-14T02:40:48.618Z,9.23
2018-09-14T02:41:22.478Z,9.10
2018-09-14T02:41:55.984Z,8.80
2018-09-14T02:42:29.706Z,8.70
2018-09-14T02:43:03.247Z,9.30
2018-09-14T02:43:36.749Z,9.20
2018-09-14T02:44:10.278Z,9.00
2018-09-14T02:44:43.774Z,9.40
2018-09-14T02:45:17.284Z,9.20
2018-09-14T02:45:50.833Z,8.83
2018-09-14T02:46:24.368Z,8.80
2018-09-14T02:46:57.937Z,8.90
2018-09-14T02:47:31.483Z,9.15
2018-09-14T02:48:05.059Z,8.85
2018-09-14T02:48:38.667Z,8.90
2018-09-14T02:49:12.152Z,8.90
2018-09-14T02:49:45.653Z,8.65
2018-09-14T02:50:19.208Z,9.10
2018-09-14T02:50:52.753Z,9.00
2018-09-14T02:51:26.289Z,9.00
2018-09-14T02:51:59.809Z,9.15
2018-09-14T02:52:33.336Z,9.55
2018-09-14T02:53:06.882Z,9.00
2018-09-14T02:53:40.429Z,8.93
2018-09-14T02:54:13.972Z,8.95
2018-09-14T02:54:47.554Z,9.13
2018-09-14T02:55:21.118Z,8.55
2018-09-14T02:55:54.692Z,8.68
2018-09-14T02:56:28.212Z,8.83
2018-09-14T02:57:01.738Z,8.83
2018-09-14T02:57:35.288Z,8.30
2018-09-14T02:58:08.865Z,8.53
2018-09-14T02:58:42.380Z,8.68
2018-09-14T02:59:15.927Z,8.65
2018-09-14T02:59:49.476Z,8.65
2018-09-14T03:00:22.994Z,8.60
2018-09-14T03:00:56.524Z,8.93
2018-09-14T03:01:30.051Z,8.50
2018-09-14T03:02:03.604Z,8.88
2018-09-14T03:02:37.130Z,9.08
2018-09-14T03:03:10.637Z,8.93
2018-09-14T03:03:44.141Z,8.78
2018-09-14T03:04:17.670Z,8.50
2018-09-14T03:04:51.212Z,8.48
2018-09-14T03:05:24.736Z,8.88
2018-09-14T03:05:58.262Z,8.70
2018-09-14T03:06:31.830Z,8.48
2018-09-14T03:07:05.374Z,8.90
2018-09-14T03:07:38.900Z,8.60
2018-09-14T03:08:12.439Z,9.00
2018-09-14T03:08:45.943Z,8.50
2018-09-14T03:09:19.473Z,8.80
2018-09-14T03:09:52.992Z,8.53
2018-09-14T03:10:26.506Z,8.53
2018-09-14T03:11:00.057Z,8.60
2018-09-14T03:11:33.562Z,8.38
2018-09-14T03:12:07.092Z,8.63
2018-09-14T03:12:40.643Z,8.30
2018-09-14T03:13:14.156Z,8.70
2018-09-14T03:13:47.692Z,8.30
2018-09-14T03:14:21.214Z,8.50
2018-09-14T03:14:54.794Z,8.53
2018-09-14T03:15:28.348Z,8.38
2018-09-14T03:16:01.862Z,7.92
2018-09-14T03:16:35.406Z,8.28
2018-09-14T03:17:09.013Z,8.30
2018-09-14T03:17:42.549Z,8.27
2018-09-14T03:18:16.061Z,8.23
2018-09-14T03:18:49.548Z,8.25
2018-09-14T03:19:23.324Z,8.25
2018-09-14T03:19:56.856Z,8.60
2018-09-14T03:20:30.384Z,8.48
2018-09-14T03:21:03.962Z,8.43
2018-09-14T03:21:37.516Z,8.33
2018-09-14T03:22:11.124Z,8.55
2018-09-14T03:22:44.663Z,8.28
2018-09-14T03:23:18.216Z,8.13
2018-09-14T03:23:51.738Z,8.45
2018-09-14T03:24:25.276Z,8.33
2018-09-14T03:24:58.830Z,8.38
2018-09-14T03:25:32.360Z,8.60
2018-09-14T03:26:06.080Z,9.15
2018-09-14T03:26:39.616Z,8.90
2018-09-14T03:27:13.196Z,8.20
2018-09-14T03:27:46.706Z,9.00
2018-09-14T03:28:20.184Z,8.68
2018-09-14T03:28:53.742Z,8.60
2018-09-14T03:29:27.286Z,9.15
2018-09-14T03:30:00.823Z,8.93
2018-09-14T03:30:34.333Z,8.60
2018-09-14T03:31:07.901Z,8.83
2018-09-14T03:31:41.481Z,8.70
2018-09-14T03:32:15.063Z,9.03
2018-09-14T03:32:48.562Z,8.38
2018-09-14T03:33:22.101Z,8.45
2018-09-14T03:33:55.612Z,8.43
2018-09-14T03:34:29.150Z,8.65
2018-09-14T03:35:02.702Z,8.73
2018-09-14T03:35:36.212Z,8.68
2018-09-14T03:36:09.766Z,8.43
2018-09-14T03:36:43.332Z,8.80
2018-09-14T03:37:16.865Z,8.95
2018-09-14T03:37:50.413Z,8.58
2018-09-14T03:38:23.916Z,8.30
2018-09-14T03:38:57.447Z,8.25
2018-09-14T03:39:30.983Z,8.93
2018-09-14T03:40:04.584Z,8.67
2018-09-14T03:40:38.081Z,8.75
2018-09-14T03:41:11.651Z,8.53
2018-09-14T03:41:45.184Z,9.03
2018-09-14T03:42:18.728Z,8.58
2018-09-14T03:42:52.248Z,8.93
2018-09-14T03:43:25.734Z,8.50
2018-09-14T03:43:59.261Z,8.60
2018-09-14T03:44:32.834Z,8.70
2018-09-14T04:04:19.762Z,7.62
2018-09-14T04:04:53.277Z,7.47
2018-09-14T04:05:26.747Z,7.70
2018-09-14T04:06:00.304Z,7.30
2018-09-14T04:06:33.840Z,7.35
2018-09-14T04:07:07.445Z,7.58
2018-09-14T04:07:41.086Z,7.80
2018-09-14T04:08:14.603Z,7.67
2018-09-14T04:08:48.242Z,7.58
2018-09-14T04:09:21.735Z,7.50
2018-09-14T04:09:55.261Z,7.58
2018-09-14T04:10:28.773Z,7.35
2018-09-14T04:11:02.270Z,7.65
2018-09-14T04:11:35.767Z,7.10
2018-09-14T04:12:09.267Z,7.42
2018-09-14T04:12:42.741Z,7.67
2018-09-14T04:13:16.289Z,7.50
2018-09-14T04:13:49.849Z,6.85
2018-09-14T04:14:23.347Z,7.58
2018-09-14T04:14:56.871Z,7.50
2018-09-14T04:31:20.989Z,7.67
2018-09-14T04:31:54.558Z,6.95
2018-09-14T04:32:28.066Z,7.08
2018-09-14T04:33:01.564Z,7.12
2018-09-14T04:33:35.078Z,6.85
2018-09-14T04:34:08.560Z,7.10
2018-09-14T04:34:42.065Z,7.30
2018-09-14T04:35:15.605Z,7.42
2018-09-14T04:35:49.131Z,6.95
2018-09-14T04:36:22.670Z,7.22
2018-09-14T04:36:56.150Z,7.42
2018-09-14T04:37:29.642Z,7.30
2018-09-14T04:38:03.162Z,7.28
2018-09-14T04:38:36.655Z,7.53
2018-09-14T04:39:10.578Z,7.10
2018-09-14T04:39:44.130Z,7.55
2018-09-14T04:40:17.636Z,7.55
2018-09-14T04:40:51.129Z,7.50
2018-09-14T04:41:24.641Z,7.92
2018-09-14T04:41:58.131Z,7.67
2018-09-14T04:42:31.639Z,7.45
2018-09-14T04:43:05.190Z,7.45
2018-09-14T04:43:38.706Z,7.47
2018-09-14T04:44:12.215Z,7.37
2018-09-14T04:44:45.709Z,7.70
2018-09-14T04:51:04.736Z,7.90
2018-09-14T04:51:38.264Z,7.95
2018-09-14T04:52:11.745Z,8.30
2018-09-14T04:52:45.268Z,7.78
2018-09-14T04:53:18.789Z,7.50
2018-09-14T04:53:52.322Z,7.92
2018-09-14T04:54:25.917Z,8.23
2018-09-14T04:54:59.443Z,8.10
2018-09-14T04:55:32.987Z,7.97
2018-09-14T04:56:07.834Z,7.65
2018-09-14T04:56:41.364Z,7.70
2018-09-14T04:57:14.913Z,7.80
2018-09-14T04:57:48.396Z,7.45
2018-09-14T04:58:21.955Z,7.83
2018-09-14T04:58:55.559Z,7.87
2018-09-14T04:59:29.090Z,8.05
2018-09-14T05:00:02.642Z,7.62
2018-09-14T05:10:16.068Z,8.95
2018-09-14T05:10:49.582Z,8.53
2018-09-14T05:11:23.050Z,8.45
2018-09-14T05:11:56.586Z,8.85
2018-09-14T05:12:30.164Z,8.68
2018-09-14T05:13:03.729Z,8.50
2018-09-14T05:13:37.244Z,8.80
2018-09-14T05:14:10.835Z,8.63
2018-09-14T05:14:44.286Z,8.75
2018-09-14T05:15:17.824Z,8.80
2018-09-14T05:29:29.889Z,9.58
2018-09-14T05:30:03.592Z,9.40
2018-09-14T05:48:44.818Z,9.75
2018-09-14T05:49:18.370Z,9.13
2018-09-14T05:49:51.892Z,9.90
2018-09-14T05:50:25.409Z,9.80
2018-09-14T05:50:58.923Z,9.60
2018-09-14T05:51:32.430Z,9.65
2018-09-14T05:52:05.949Z,9.55
2018-09-14T05:52:39.469Z,9.83
2018-09-14T05:53:12.979Z,10.00
2018-09-14T05:53:46.521Z,9.20
2018-09-14T05:54:20.098Z,9.88
2018-09-14T05:54:53.529Z,9.95
2018-09-14T05:55:27.077Z,9.88
2018-09-14T05:56:00.585Z,9.93
2018-09-14T05:56:34.116Z,10.55
2018-09-14T05:57:07.617Z,10.32
2018-09-14T05:57:41.132Z,10.15
2018-09-14T05:58:14.647Z,9.95
2018-09-14T05:58:48.153Z,9.90
2018-09-14T05:59:21.835Z,10.10
2018-09-14T05:59:55.392Z,10.30
2018-09-14T06:00:29.484Z,10.70
2018-09-14T06:07:56.772Z,10.70
2018-09-14T06:08:30.281Z,10.23
2018-09-14T06:09:10.390Z,10.65
2018-09-14T06:09:43.931Z,10.82
2018-09-14T06:10:17.486Z,10.58
2018-09-14T06:10:50.979Z,10.58
2018-09-14T06:11:24.511Z,10.85
2018-09-14T06:11:57.993Z,10.38
2018-09-14T06:12:31.493Z,10.20
2018-09-14T06:13:05.239Z,10.45
2018-09-14T06:13:38.877Z,10.08
2018-09-14T06:14:12.447Z,10.05
2018-09-14T06:14:45.970Z,9.93
2018-09-14T06:15:19.477Z,10.70
2018-09-14T06:27:24.812Z,10.40
2018-09-14T06:27:58.348Z,10.48
2018-09-14T06:28:31.853Z,10.53
2018-09-14T06:29:05.887Z,10.45
2018-09-14T06:29:39.505Z,10.28
2018-09-14T06:30:13.067Z,10.35
2018-09-14T06:46:37.028Z,11.03
2018-09-14T06:47:10.562Z,10.68
2018-09-14T06:47:44.108Z,10.70
2018-09-14T06:48:17.625Z,9.95
2018-09-14T06:48:51.120Z,10.25
2018-09-14T06:49:24.666Z,10.43
2018-09-14T06:49:58.165Z,10.50
2018-09-14T06:50:31.687Z,10.58
2018-09-14T06:51:05.466Z,10.63
2018-09-14T06:51:38.969Z,10.25
2018-09-14T06:52:12.481Z,10.48
2018-09-14T06:52:46.016Z,10.32
2018-09-14T06:53:19.601Z,10.43
2018-09-14T06:53:53.097Z,10.25
2018-09-14T06:54:26.635Z,10.28
2018-09-14T06:55:00.154Z,10.28
2018-09-14T06:55:33.695Z,10.60
2018-09-14T06:56:07.232Z,10.50
2018-09-14T06:56:40.737Z,10.23
2018-09-14T06:57:14.276Z,10.53
2018-09-14T06:57:47.780Z,10.63
2018-09-14T06:58:21.290Z,10.20
2018-09-14T06:58:54.923Z,10.25
2018-09-14T06:59:28.423Z,10.45
2018-09-14T07:00:02.114Z,10.63
2018-09-14T07:00:35.528Z,10.30
2018-09-14T07:05:53.463Z,10.80
2018-09-14T07:06:27.039Z,10.65
2018-09-14T07:07:00.548Z,10.63
2018-09-14T07:07:34.065Z,10.78
2018-09-14T07:08:07.815Z,10.53
2018-09-14T07:08:41.321Z,10.50
2018-09-14T07:09:14.835Z,9.93
2018-09-14T07:09:48.427Z,10.48
2018-09-14T07:10:21.966Z,10.48
2018-09-14T07:10:55.505Z,10.80
2018-09-14T07:11:29.024Z,10.25
2018-09-14T07:12:02.549Z,10.10
2018-09-14T07:12:36.052Z,10.58
2018-09-14T07:13:09.558Z,10.35
2018-09-14T07:13:43.059Z,10.50
2018-09-14T07:14:16.607Z,10.65
2018-09-14T07:14:50.877Z,10.10
2018-09-14T07:15:24.400Z,10.53
2018-09-14T07:25:34.832Z,10.15
2018-09-14T07:26:08.745Z,9.75
2018-09-14T07:26:42.264Z,10.28
2018-09-14T07:27:15.794Z,10.40
2018-09-14T07:27:49.344Z,10.40
2018-09-14T07:28:22.828Z,10.10
2018-09-14T07:28:56.379Z,10.38
2018-09-14T07:29:29.915Z,9.65
2018-09-14T07:30:03.858Z,9.83
2018-09-14T07:30:37.369Z,10.40
2018-09-14T07:44:49.097Z,10.15
2018-09-14T07:45:22.666Z,10.05
2018-09-14T07:45:56.168Z,9.73
2018-09-14T08:04:02.908Z,10.10
2018-09-14T08:04:36.456Z,9.90
2018-09-14T08:05:09.994Z,9.63
2018-09-14T08:05:43.573Z,9.45
2018-09-14T08:06:17.110Z,9.80
2018-09-14T08:06:50.638Z,9.98
2018-09-14T08:07:24.188Z,9.75
2018-09-14T08:07:57.700Z,9.40
2018-09-14T08:08:31.405Z,10.43
2018-09-14T08:09:09.778Z,9.63
2018-09-14T08:09:43.274Z,9.83
2018-09-14T08:10:16.804Z,10.00
2018-09-14T08:10:50.320Z,9.58
2018-09-14T08:11:23.834Z,9.78
2018-09-14T08:11:57.487Z,10.32
2018-09-14T08:12:30.868Z,9.75
2018-09-14T08:13:04.674Z,9.75
2018-09-14T08:13:38.135Z,9.75
2018-09-14T08:14:11.665Z,10.05
2018-09-14T08:14:45.186Z,9.35
2018-09-14T08:15:18.768Z,9.98
2018-09-14T08:15:52.288Z,9.88
2018-09-14T08:23:17.599Z,9.63
2018-09-14T08:23:51.096Z,9.50
2018-09-14T08:24:24.629Z,9.68
2018-09-14T08:24:58.154Z,9.80
2018-09-14T08:25:31.680Z,9.68
2018-09-14T08:26:05.235Z,9.70
2018-09-14T08:26:38.806Z,9.55
2018-09-14T08:27:12.326Z,9.18
2018-09-14T08:27:45.816Z,9.60
2018-09-14T08:28:19.330Z,9.10
2018-09-14T08:28:52.841Z,9.28
2018-09-14T08:29:26.372Z,9.53
2018-09-14T08:29:59.878Z,9.10
2018-09-14T08:30:33.371Z,9.15
2018-09-14T08:31:07.099Z,8.88
2018-09-14T08:42:34.065Z,8.48
2018-09-14T08:43:07.556Z,8.85
2018-09-14T08:43:41.043Z,8.43
2018-09-14T08:44:14.536Z,8.60
2018-09-14T08:44:48.197Z,8.60
2018-09-14T08:45:21.747Z,8.58
2018-09-14T08:45:55.271Z,8.50
2018-09-14T09:01:51.792Z,8.40
2018-09-14T09:02:25.331Z,8.58
2018-09-14T09:02:58.861Z,8.50
2018-09-14T09:03:32.389Z,8.55
2018-09-14T09:04:05.967Z,8.45
2018-09-14T09:04:39.480Z,8.40
2018-09-14T09:05:12.968Z,7.92
2018-09-14T09:05:46.508Z,8.30
2018-09-14T09:06:20.122Z,8.38
2018-09-14T09:06:53.657Z,8.25
2018-09-14T09:07:27.189Z,8.75
2018-09-14T09:08:00.775Z,8.90
2018-09-14T09:08:34.358Z,8.50
2018-09-14T09:09:11.051Z,8.38
2018-09-14T09:09:44.507Z,8.60
2018-09-14T09:10:18.093Z,8.00
2018-09-14T09:10:51.630Z,8.10
2018-09-14T09:11:25.428Z,8.30
2018-09-14T09:11:58.907Z,8.60
2018-09-14T09:12:32.445Z,8.35
2018-09-14T09:13:05.982Z,8.30
2018-09-14T09:13:39.509Z,8.38
2018-09-14T09:14:13.033Z,8.68
2018-09-14T09:14:46.596Z,8.30
2018-09-14T09:15:20.167Z,9.10
2018-09-14T09:15:53.681Z,8.33
2018-09-14T09:21:02.977Z,8.43
2018-09-14T09:21:36.527Z,8.60
2018-09-14T09:22:10.109Z,8.28
2018-09-14T09:22:43.622Z,8.18
2018-09-14T09:23:17.173Z,8.65
2018-09-14T09:23:50.650Z,8.53
2018-09-14T09:24:24.157Z,8.78
2018-09-14T09:24:57.712Z,8.70
2018-09-14T09:25:31.254Z,8.83
2018-09-14T09:26:04.826Z,8.95
2018-09-14T09:26:38.340Z,8.60
2018-09-14T09:27:11.857Z,8.05
2018-09-14T09:27:45.404Z,8.88
2018-09-14T09:28:18.928Z,8.98
2018-09-14T09:28:52.440Z,8.88
2018-09-14T09:29:26.015Z,8.50
2018-09-14T09:29:59.446Z,8.50
2018-09-14T09:30:32.935Z,8.55
2018-09-14T09:31:06.820Z,8.53
2018-09-14T09:40:16.350Z,8.70
2018-09-14T09:40:49.830Z,8.70
2018-09-14T09:41:23.361Z,8.68
2018-09-14T09:41:56.868Z,8.90
2018-09-14T09:42:30.437Z,8.60
2018-09-14T09:43:03.981Z,8.88
2018-09-14T09:43:37.662Z,8.50
2018-09-14T09:44:11.254Z,8.70
2018-09-14T09:44:44.783Z,8.63
2018-09-14T09:45:18.285Z,8.80
2018-09-14T09:45:51.783Z,8.93
2018-09-14T09:46:25.331Z,8.60
2018-09-14T09:59:32.273Z,8.60
2018-09-14T10:00:10.503Z,8.73
2018-09-14T10:00:49.671Z,9.08
2018-09-14T10:01:33.785Z,8.90
2018-09-14T10:18:46.101Z,8.80
2018-09-14T10:19:19.692Z,9.35
2018-09-14T10:19:53.375Z,9.20
2018-09-14T10:20:26.961Z,9.43
2018-09-14T10:21:00.501Z,8.90
2018-09-14T10:21:33.997Z,9.00
2018-09-14T10:22:07.593Z,9.70
2018-09-14T10:22:41.111Z,9.23
2018-09-14T10:23:14.601Z,9.43
2018-09-14T10:23:48.152Z,9.18
2018-09-14T10:24:21.697Z,8.63
2018-09-14T10:24:55.193Z,8.60
2018-09-14T10:25:28.714Z,8.93
2018-09-14T10:26:02.433Z,8.65
2018-09-14T10:26:35.919Z,8.68
2018-09-14T10:27:09.509Z,8.50
2018-09-14T10:27:43.049Z,8.93
2018-09-14T10:28:16.548Z,8.40
2018-09-14T10:28:50.094Z,8.58
2018-09-14T10:29:23.589Z,8.88
2018-09-14T10:29:57.097Z,8.70
2018-09-14T10:30:30.579Z,8.30
2018-09-14T10:31:04.173Z,7.90
2018-09-14T10:31:37.677Z,8.20
2018-09-14T10:38:04.397Z,7.55
2018-09-14T10:38:37.949Z,7.65
2018-09-14T10:39:11.939Z,7.55
2018-09-14T10:39:45.454Z,7.10
2018-09-14T10:40:19.021Z,6.80
2018-09-14T10:40:52.617Z,6.67
2018-09-14T10:41:26.083Z,7.10
2018-09-14T10:41:59.641Z,6.60
2018-09-14T10:42:33.137Z,6.33
2018-09-14T10:43:06.703Z,6.67
2018-09-14T10:43:40.208Z,6.70
2018-09-14T10:44:13.701Z,6.28
2018-09-14T10:44:47.199Z,6.47
2018-09-14T10:45:20.787Z,6.37
2018-09-14T10:45:54.270Z,6.37
2018-09-14T10:46:27.784Z,6.00
2018-09-14T10:57:15.867Z,5.37
2018-09-14T10:57:49.386Z,5.40
2018-09-14T10:58:23.151Z,5.50
2018-09-14T10:58:56.674Z,5.20
2018-09-14T10:59:30.188Z,5.30
2018-09-14T11:00:04.149Z,5.30
2018-09-14T11:00:37.725Z,5.15
2018-09-14T11:01:13.964Z,5.55
2018-09-14T11:01:47.482Z,5.17
2018-09-14T11:16:32.210Z,5.30
2018-09-14T11:36:19.081Z,5.35
2018-09-14T11:36:52.589Z,5.40
2018-09-14T11:37:26.167Z,5.55
2018-09-14T11:37:59.685Z,5.30
2018-09-14T11:38:33.368Z,5.90
2018-09-14T11:39:09.370Z,5.80
2018-09-14T11:39:42.880Z,5.72
2018-09-14T11:40:16.392Z,5.50
2018-09-14T11:40:49.888Z,5.55
2018-09-14T11:41:23.401Z,5.53
2018-09-14T11:41:56.918Z,5.42
2018-09-14T11:42:30.921Z,5.30
2018-09-14T11:43:04.437Z,5.30
2018-09-14T11:43:37.960Z,5.30
2018-09-14T11:44:11.461Z,5.40
2018-09-14T11:44:44.960Z,5.47
2018-09-14T11:45:18.501Z,5.55
2018-09-14T11:45:52.087Z,5.42
2018-09-14T11:46:25.596Z,5.47
2018-09-14T11:46:59.094Z,5.30
2018-09-14T11:55:35.376Z,5.60
2018-09-14T11:56:08.952Z,5.50
2018-09-14T11:56:42.454Z,5.62
2018-09-14T11:57:15.928Z,5.50
2018-09-14T11:57:49.430Z,5.25
2018-09-14T11:58:22.972Z,5.15
2018-09-14T11:58:56.449Z,5.35
2018-09-14T11:59:29.947Z,5.40
2018-09-14T12:00:03.624Z,5.47
2018-09-14T12:00:37.174Z,5.42
2018-09-14T12:01:10.688Z,5.60
2018-09-14T12:01:44.220Z,5.60
2018-09-14T12:14:44.250Z,5.60
2018-09-14T12:15:17.754Z,5.58
2018-09-14T12:15:51.303Z,5.17
2018-09-14T12:16:24.813Z,5.40
2018-09-14T12:16:58.316Z,5.12
2018-09-14T12:33:57.303Z,5.25
2018-09-14T12:34:30.842Z,5.30
2018-09-14T12:35:04.365Z,5.28
2018-09-14T12:35:37.940Z,5.12
2018-09-14T12:36:11.391Z,5.55
2018-09-14T12:36:44.883Z,5.33
2018-09-14T12:37:18.380Z,5.33
2018-09-14T12:37:51.893Z,5.33
2018-09-14T12:38:25.431Z,5.45
2018-09-14T12:38:58.990Z,5.20
2018-09-14T12:39:32.501Z,5.40
2018-09-14T12:40:06.190Z,5.60
2018-09-14T12:40:39.668Z,5.42
2018-09-14T12:41:13.177Z,5.10
2018-09-14T12:41:46.679Z,5.30
2018-09-14T12:42:20.162Z,5.33
2018-09-14T12:42:53.677Z,5.45
2018-09-14T12:43:27.184Z,5.20
2018-09-14T12:44:00.682Z,5.30
2018-09-14T12:44:34.181Z,5.50
2018-09-14T12:45:07.725Z,5.60
2018-09-14T12:45:41.241Z,5.35
2018-09-14T12:46:14.765Z,5.50
2018-09-14T12:46:48.279Z,5.17
2018-09-14T12:53:13.197Z,5.30